sensor_id;sensor_type;location;lat;lon;timestamp;pressure;altitude;pressure_sealevel;temperature;humidity
9129;BME280;4599;50.906;6.786;2022-10-16T00:01:50;76084.97;;;-142.83;86.27
9129;BME280;4599;50.906;6.786;2022-10-16T00:05:51;76093.25;;;-142.83;86.71
9129;BME280;4599;50.906;6.786;2022-10-16T00:09:54;76089.09;;;-142.83;86.13
9129;BME280;4599;50.906;6.786;2022-10-16T00:13:58;76082.88;;;-142.83;84.70
9129;BME280;4599;50.906;6.786;2022-10-16T00:18:00;76124.41;;;-142.83;87.78
9129;BME280;4599;50.906;6.786;2022-10-16T00:22:01;76130.63;;;-142.83;87.97
9129;BME280;4599;50.906;6.786;2022-10-16T00:26:06;76141.00;;;-142.83;88.46
9129;BME280;4599;50.906;6.786;2022-10-16T00:30:08;76103.66;;;-142.83;85.83
9129;BME280;4599;50.906;6.786;2022-10-16T00:34:10;76107.78;;;-142.83;86.25
9129;BME280;4599;50.906;6.786;2022-10-16T00:38:11;76118.19;;;-142.83;87.13
9129;BME280;4599;50.906;6.786;2022-10-16T00:42:17;76151.41;;;-142.83;87.60
9129;BME280;4599;50.906;6.786;2022-10-16T00:46:21;76153.47;;;-142.83;87.37
9129;BME280;4599;50.906;6.786;2022-10-16T00:50:27;76159.69;;;-142.83;88.02
9129;BME280;4599;50.906;6.786;2022-10-16T00:54:31;76157.63;;;-142.83;87.46
9129;BME280;4599;50.906;6.786;2022-10-16T00:58:34;76132.72;;;-142.83;86.56
9129;BME280;4599;50.906;6.786;2022-10-16T01:02:36;76178.38;;;-142.83;87.21
9129;BME280;4599;50.906;6.786;2022-10-16T01:06:43;76178.38;;;-142.83;87.99
9129;BME280;4599;50.906;6.786;2022-10-16T01:10:51;76165.94;;;-142.83;86.99
9129;BME280;4599;50.906;6.786;2022-10-16T01:14:59;76184.63;;;-142.83;86.73
9129;BME280;4599;50.906;6.786;2022-10-16T01:19:09;76217.84;;;-142.83;87.68
9129;BME280;4599;50.906;6.786;2022-10-16T01:23:23;76215.75;;;-142.83;88.22
9129;BME280;4599;50.906;6.786;2022-10-16T01:27:30;76201.22;;;-142.83;87.64
9129;BME280;4599;50.906;6.786;2022-10-16T01:31:36;76201.22;;;-142.83;88.13
9129;BME280;4599;50.906;6.786;2022-10-16T01:35:43;76199.16;;;-142.83;87.29
9129;BME280;4599;50.906;6.786;2022-10-16T01:39:47;76209.53;;;-142.83;87.55
9129;BME280;4599;50.906;6.786;2022-10-16T01:43:57;76242.75;;;-142.83;88.60
9129;BME280;4599;50.906;6.786;2022-10-16T01:48:01;76224.06;;;-142.83;88.01
9129;BME280;4599;50.906;6.786;2022-10-16T01:52:06;76226.13;;;-142.83;88.06
9129;BME280;4599;50.906;6.786;2022-10-16T01:56:11;76209.53;;;-142.83;87.45
9129;BME280;4599;50.906;6.786;2022-10-16T02:00:17;76219.91;;;-142.83;88.78
9129;BME280;4599;50.906;6.786;2022-10-16T02:04:24;76186.69;;;-142.83;86.74
9129;BME280;4599;50.906;6.786;2022-10-16T02:08:29;76180.47;;;-142.83;86.06
9129;BME280;4599;50.906;6.786;2022-10-16T02:12:33;76178.38;;;-142.83;86.10
9129;BME280;4599;50.906;6.786;2022-10-16T02:16:40;76136.84;;;-142.83;83.42
9129;BME280;4599;50.906;6.786;2022-10-16T02:20:55;76136.84;;;-142.83;82.52
9129;BME280;4599;50.906;6.786;2022-10-16T02:25:01;76155.53;;;-142.83;84.58
9129;BME280;4599;50.906;6.786;2022-10-16T02:29:07;76111.94;;;-142.83;81.20
9129;BME280;4599;50.906;6.786;2022-10-16T02:33:12;76124.41;;;-142.83;81.93
9129;BME280;4599;50.906;6.786;2022-10-16T02:37:15;76153.47;;;-142.83;83.48
9129;BME280;4599;50.906;6.786;2022-10-16T02:41:18;76132.72;;;-142.83;81.70
9129;BME280;4599;50.906;6.786;2022-10-16T02:45:20;76141.00;;;-142.83;82.03
9129;BME280;4599;50.906;6.786;2022-10-16T02:49:23;76138.94;;;-142.83;81.63
9129;BME280;4599;50.906;6.786;2022-10-16T02:53:25;76145.16;;;-142.83;81.33
9129;BME280;4599;50.906;6.786;2022-10-16T02:57:26;76168.00;;;-142.83;83.85
9129;BME280;4599;50.906;6.786;2022-10-16T03:01:29;76168.00;;;-142.83;82.54
9129;BME280;4599;50.906;6.786;2022-10-16T03:05:31;76153.47;;;-142.83;81.19
9129;BME280;4599;50.906;6.786;2022-10-16T03:09:33;76153.47;;;-142.83;80.32
9129;BME280;4599;50.906;6.786;2022-10-16T03:13:34;76118.19;;;-142.83;78.99
9129;BME280;4599;50.906;6.786;2022-10-16T03:17:36;76141.00;;;-142.83;80.03
9129;BME280;4599;50.906;6.786;2022-10-16T03:21:39;76138.94;;;-142.83;80.12
9129;BME280;4599;50.906;6.786;2022-10-16T03:25:40;76159.69;;;-142.83;80.88
9129;BME280;4599;50.906;6.786;2022-10-16T03:29:42;76134.78;;;-142.83;78.82
9129;BME280;4599;50.906;6.786;2022-10-16T03:33:43;76124.41;;;-142.83;78.88
9129;BME280;4599;50.906;6.786;2022-10-16T03:37:46;76128.56;;;-142.83;78.49
9129;BME280;4599;50.906;6.786;2022-10-16T03:41:48;76126.47;;;-142.83;78.73
9129;BME280;4599;50.906;6.786;2022-10-16T03:45:49;76134.78;;;-142.83;78.38
9129;BME280;4599;50.906;6.786;2022-10-16T03:49:51;76134.78;;;-142.83;79.03
9129;BME280;4599;50.906;6.786;2022-10-16T03:53:54;76153.47;;;-142.83;79.27
9129;BME280;4599;50.906;6.786;2022-10-16T03:57:55;76134.78;;;-142.83;78.35
9129;BME280;4599;50.906;6.786;2022-10-16T04:01:57;76147.25;;;-142.83;78.43
9129;BME280;4599;50.906;6.786;2022-10-16T04:05:58;76136.84;;;-142.83;78.61
9129;BME280;4599;50.906;6.786;2022-10-16T04:10:02;76124.41;;;-142.83;77.57
9129;BME280;4599;50.906;6.786;2022-10-16T04:14:04;76124.41;;;-142.83;78.52
9129;BME280;4599;50.906;6.786;2022-10-16T04:18:05;76132.72;;;-142.83;78.52
9129;BME280;4599;50.906;6.786;2022-10-16T04:22:07;76149.31;;;-142.83;78.90
9129;BME280;4599;50.906;6.786;2022-10-16T04:26:10;76157.63;;;-142.83;78.96
9129;BME280;4599;50.906;6.786;2022-10-16T04:30:11;76165.94;;;-142.83;79.59
9129;BME280;4599;50.906;6.786;2022-10-16T04:34:13;76157.63;;;-142.83;78.98
9129;BME280;4599;50.906;6.786;2022-10-16T04:38:15;76147.25;;;-142.83;79.27
9129;BME280;4599;50.906;6.786;2022-10-16T04:42:18;76165.94;;;-142.83;79.19
9129;BME280;4599;50.906;6.786;2022-10-16T04:46:19;76165.94;;;-142.83;79.71
9129;BME280;4599;50.906;6.786;2022-10-16T04:50:21;76163.84;;;-142.83;79.29
9129;BME280;4599;50.906;6.786;2022-10-16T04:54:22;76182.53;;;-142.83;80.13
9129;BME280;4599;50.906;6.786;2022-10-16T04:58:25;76201.22;;;-142.83;80.37
9129;BME280;4599;50.906;6.786;2022-10-16T05:02:27;76209.53;;;-142.83;81.16
9129;BME280;4599;50.906;6.786;2022-10-16T05:06:28;76199.16;;;-142.83;80.66
9129;BME280;4599;50.906;6.786;2022-10-16T05:10:30;76184.63;;;-142.83;80.55
9129;BME280;4599;50.906;6.786;2022-10-16T05:14:33;76161.78;;;-142.83;79.67
9129;BME280;4599;50.906;6.786;2022-10-16T05:18:35;76161.78;;;-142.83;79.62
9129;BME280;4599;50.906;6.786;2022-10-16T05:22:36;76143.09;;;-142.83;79.49
9129;BME280;4599;50.906;6.786;2022-10-16T05:26:41;76170.06;;;-142.83;80.44
9129;BME280;4599;50.906;6.786;2022-10-16T05:30:43;76170.06;;;-142.83;79.92
9129;BME280;4599;50.906;6.786;2022-10-16T05:34:45;76186.69;;;-142.83;79.92
9129;BME280;4599;50.906;6.786;2022-10-16T05:38:50;76197.06;;;-142.83;80.44
9129;BME280;4599;50.906;6.786;2022-10-16T05:42:54;76213.69;;;-142.83;81.64
9129;BME280;4599;50.906;6.786;2022-10-16T05:46:57;76248.97;;;-142.83;82.78
9129;BME280;4599;50.906;6.786;2022-10-16T05:51:00;76288.41;;;-142.83;84.28
9129;BME280;4599;50.906;6.786;2022-10-16T05:55:02;76292.56;;;-142.83;84.28
9129;BME280;4599;50.906;6.786;2022-10-16T05:59:04;76325.78;;;-142.83;84.83
9129;BME280;4599;50.906;6.786;2022-10-16T06:03:07;76332.03;;;-142.83;84.56
9129;BME280;4599;50.906;6.786;2022-10-16T06:07:09;76363.16;;;-142.83;85.41
9129;BME280;4599;50.906;6.786;2022-10-16T06:11:11;76386.00;;;-142.83;85.90
9129;BME280;4599;50.906;6.786;2022-10-16T06:15:13;76381.84;;;-142.83;86.29
9129;BME280;4599;50.906;6.786;2022-10-16T06:19:16;76375.63;;;-142.83;86.56
9129;BME280;4599;50.906;6.786;2022-10-16T06:23:18;76344.47;;;-142.83;86.71
9129;BME280;4599;50.906;6.786;2022-10-16T06:27:19;76346.56;;;-142.83;87.21
9129;BME280;4599;50.906;6.786;2022-10-16T06:31:21;76346.56;;;-142.83;88.09
9129;BME280;4599;50.906;6.786;2022-10-16T06:35:24;76344.47;;;-142.83;88.57
9129;BME280;4599;50.906;6.786;2022-10-16T06:39:26;76325.78;;;-142.83;88.15
9129;BME280;4599;50.906;6.786;2022-10-16T06:43:28;76311.25;;;-142.83;87.62
9129;BME280;4599;50.906;6.786;2022-10-16T06:47:30;76298.81;;;-142.83;87.44
9129;BME280;4599;50.906;6.786;2022-10-16T06:51:33;76296.72;;;-142.83;87.58
9129;BME280;4599;50.906;6.786;2022-10-16T06:55:39;76300.88;;;-142.83;88.24
9129;BME280;4599;50.906;6.786;2022-10-16T06:59:40;76259.34;;;-142.83;86.03
9129;BME280;4599;50.906;6.786;2022-10-16T07:03:47;76261.44;;;-142.83;86.89
9129;BME280;4599;50.906;6.786;2022-10-16T07:07:50;76230.28;;;-142.83;86.06
9129;BME280;4599;50.906;6.786;2022-10-16T07:11:51;76213.69;;;-142.83;85.23
9129;BME280;4599;50.906;6.786;2022-10-16T07:15:53;76163.84;;;-142.83;81.90
9129;BME280;4599;50.906;6.786;2022-10-16T07:19:54;76186.69;;;-142.83;83.08
9129;BME280;4599;50.906;6.786;2022-10-16T07:23:58;76199.16;;;-142.83;82.18
9129;BME280;4599;50.906;6.786;2022-10-16T07:28:00;76195.00;;;-142.83;83.27
9129;BME280;4599;50.906;6.786;2022-10-16T07:32:02;76165.94;;;-142.83;83.62
9129;BME280;4599;50.906;6.786;2022-10-16T07:36:04;76153.47;;;-142.83;81.09
9129;BME280;4599;50.906;6.786;2022-10-16T07:40:09;76141.00;;;-142.83;79.01
9129;BME280;4599;50.906;6.786;2022-10-16T07:44:10;76170.06;;;-142.83;79.95
9129;BME280;4599;50.906;6.786;2022-10-16T07:48:12;76190.84;;;-142.83;81.72
9129;BME280;4599;50.906;6.786;2022-10-16T07:52:13;76201.22;;;-142.83;80.77
9129;BME280;4599;50.906;6.786;2022-10-16T07:56:17;76203.28;;;-142.83;80.70
9129;BME280;4599;50.906;6.786;2022-10-16T08:00:19;76234.44;;;-142.83;81.64
9129;BME280;4599;50.906;6.786;2022-10-16T08:04:21;76251.06;;;-142.83;82.61
9129;BME280;4599;50.906;6.786;2022-10-16T08:08:22;76263.50;;;-142.83;83.56
9129;BME280;4599;50.906;6.786;2022-10-16T08:12:25;76244.81;;;-142.83;83.36
9129;BME280;4599;50.906;6.786;2022-10-16T08:16:27;76157.63;;;-142.83;77.03
9129;BME280;4599;50.906;6.786;2022-10-16T08:20:30;76132.72;;;-142.83;75.70
9129;BME280;4599;50.906;6.786;2022-10-16T08:24:32;76101.56;;;-142.83;75.21
9129;BME280;4599;50.906;6.786;2022-10-16T08:28:35;76078.72;;;-142.83;73.67
9129;BME280;4599;50.906;6.786;2022-10-16T08:32:37;76091.19;;;-142.83;72.97
9129;BME280;4599;50.906;6.786;2022-10-16T08:36:39;76080.81;;;-142.83;71.86
9129;BME280;4599;50.906;6.786;2022-10-16T08:40:42;76072.50;;;-142.83;69.84
9129;BME280;4599;50.906;6.786;2022-10-16T08:45:18;76051.75;;;-142.83;69.30
9129;BME280;4599;50.906;6.786;2022-10-16T08:49:21;76053.81;;;-142.83;69.73
9129;BME280;4599;50.906;6.786;2022-10-16T08:53:26;76047.59;;;-142.83;68.91
9129;BME280;4599;50.906;6.786;2022-10-16T08:57:29;76030.97;;;-142.83;68.68
9129;BME280;4599;50.906;6.786;2022-10-16T09:01:38;76024.75;;;-142.83;68.21
9129;BME280;4599;50.906;6.786;2022-10-16T09:10:14;75974.94;;;-142.83;66.81
9129;BME280;4599;50.906;6.786;2022-10-16T09:14:35;75964.53;;;-142.83;66.46
9129;BME280;4599;50.906;6.786;2022-10-16T09:18:45;75970.78;;;-142.83;63.96
9129;BME280;4599;50.906;6.786;2022-10-16T09:22:52;75962.47;;;-142.83;65.05
9129;BME280;4599;50.906;6.786;2022-10-16T09:26:54;75943.78;;;-142.83;63.78
9129;BME280;4599;50.906;6.786;2022-10-16T09:30:56;75950.00;;;-142.83;64.58
9129;BME280;4599;50.906;6.786;2022-10-16T09:34:59;75941.72;;;-142.83;64.01
9129;BME280;4599;50.906;6.786;2022-10-16T09:39:05;75941.72;;;-142.83;63.36
9129;BME280;4599;50.906;6.786;2022-10-16T09:43:19;75954.16;;;-142.83;65.02
9129;BME280;4599;50.906;6.786;2022-10-16T09:47:23;75920.94;;;-142.83;63.01
9129;BME280;4599;50.906;6.786;2022-10-16T09:51:30;75898.13;;;-142.83;62.61
9129;BME280;4599;50.906;6.786;2022-10-16T09:55:32;75827.53;;;-142.83;59.98
9129;BME280;4599;50.906;6.786;2022-10-16T09:59:33;75684.28;;;-142.83;56.59
9129;BME280;4599;50.906;6.786;2022-10-16T10:03:37;75574.28;;;-142.83;54.15
9129;BME280;4599;50.906;6.786;2022-10-16T10:07:43;75568.03;;;-142.83;53.75
9129;BME280;4599;50.906;6.786;2022-10-16T10:11:48;75489.16;;;-142.83;51.87
9129;BME280;4599;50.906;6.786;2022-10-16T10:15:50;75345.94;;;-142.83;47.51
9129;BME280;4599;50.906;6.786;2022-10-16T10:19:53;75281.59;;;-142.83;46.76
9129;BME280;4599;50.906;6.786;2022-10-16T10:23:56;75221.41;;;-142.83;46.25
9129;BME280;4599;50.906;6.786;2022-10-16T10:28:17;75273.28;;;-142.83;46.07
9129;BME280;4599;50.906;6.786;2022-10-16T10:32:27;75410.28;;;-142.83;47.01
9129;BME280;4599;50.906;6.786;2022-10-16T10:36:34;75460.09;;;-142.83;48.30
9129;BME280;4599;50.906;6.786;2022-10-16T10:40:46;75428.97;;;-142.83;49.99
9129;BME280;4599;50.906;6.786;2022-10-16T10:44:57;75300.28;;;-142.83;45.89
9129;BME280;4599;50.906;6.786;2022-10-16T10:49:14;75196.50;;;-142.83;45.57
9129;BME280;4599;50.906;6.786;2022-10-16T10:53:27;75134.22;;;-142.83;42.02
9129;BME280;4599;50.906;6.786;2022-10-16T10:57:35;75291.97;;;-142.83;46.70
9129;BME280;4599;50.906;6.786;2022-10-16T11:01:41;75312.72;;;-142.83;44.84
9129;BME280;4599;50.906;6.786;2022-10-16T11:05:50;75190.25;;;-142.83;43.85
9129;BME280;4599;50.906;6.786;2022-10-16T11:09:57;75198.56;;;-142.83;42.78
9129;BME280;4599;50.906;6.786;2022-10-16T11:14:04;75238.00;;;-142.83;43.57
9129;BME280;4599;50.906;6.786;2022-10-16T11:18:11;75206.88;;;-142.83;42.06
9129;BME280;4599;50.906;6.786;2022-10-16T11:22:24;75063.66;;;-142.83;39.67
9129;BME280;4599;50.906;6.786;2022-10-16T11:26:33;75063.66;;;-142.83;40.45
9129;BME280;4599;50.906;6.786;2022-10-16T11:30:43;75188.19;;;-142.83;41.61
9129;BME280;4599;50.906;6.786;2022-10-16T11:34:50;75148.75;;;-142.83;39.96
9129;BME280;4599;50.906;6.786;2022-10-16T11:38:58;75092.72;;;-142.83;39.17
9129;BME280;4599;50.906;6.786;2022-10-16T11:43:10;75028.38;;;-142.83;38.05
9129;BME280;4599;50.906;6.786;2022-10-16T11:47:28;75078.19;;;-142.83;39.75
9129;BME280;4599;50.906;6.786;2022-10-16T11:51:59;75109.31;;;-142.83;41.16
9129;BME280;4599;50.906;6.786;2022-10-16T11:56:03;75221.41;;;-142.83;40.54
9129;BME280;4599;50.906;6.786;2022-10-16T12:00:08;75123.84;;;-142.83;39.49
9129;BME280;4599;50.906;6.786;2022-10-16T12:04:22;75130.06;;;-142.83;39.49
9129;BME280;4599;50.906;6.786;2022-10-16T12:08:26;75265.00;;;-142.83;41.80
9129;BME280;4599;50.906;6.786;2022-10-16T12:12:38;75343.88;;;-142.83;44.91
9129;BME280;4599;50.906;6.786;2022-10-16T12:16:51;75350.09;;;-142.83;43.55
9129;BME280;4599;50.906;6.786;2022-10-16T12:20:57;75383.31;;;-142.83;45.77
9129;BME280;4599;50.906;6.786;2022-10-16T12:24:59;75437.28;;;-142.83;43.67
9129;BME280;4599;50.906;6.786;2022-10-16T12:29:13;75420.66;;;-142.83;45.31
9129;BME280;4599;50.906;6.786;2022-10-16T12:33:20;75385.38;;;-142.83;43.97
9129;BME280;4599;50.906;6.786;2022-10-16T12:37:25;75314.81;;;-142.83;43.64
9129;BME280;4599;50.906;6.786;2022-10-16T12:41:29;75285.75;;;-142.83;44.04
9129;BME280;4599;50.906;6.786;2022-10-16T12:45:33;75298.19;;;-142.83;41.73
9129;BME280;4599;50.906;6.786;2022-10-16T12:49:37;75362.53;;;-142.83;44.82
9129;BME280;4599;50.906;6.786;2022-10-16T12:53:40;75426.91;;;-142.83;44.31
9129;BME280;4599;50.906;6.786;2022-10-16T12:57:56;75424.81;;;-142.83;44.71
9129;BME280;4599;50.906;6.786;2022-10-16T13:02:16;75455.94;;;-142.83;47.65
9129;BME280;4599;50.906;6.786;2022-10-16T13:06:30;75428.97;;;-142.83;46.56
9129;BME280;4599;50.906;6.786;2022-10-16T13:10:40;75397.84;;;-142.83;47.43
9129;BME280;4599;50.906;6.786;2022-10-16T13:15:06;75482.94;;;-142.83;51.04
9129;BME280;4599;50.906;6.786;2022-10-16T13:19:19;75526.53;;;-142.83;52.56
9129;BME280;4599;50.906;6.786;2022-10-16T13:23:27;75455.94;;;-142.83;48.54
9129;BME280;4599;50.906;6.786;2022-10-16T13:27:41;75435.19;;;-142.83;45.30
9129;BME280;4599;50.906;6.786;2022-10-16T13:31:46;75401.97;;;-142.83;44.40
9129;BME280;4599;50.906;6.786;2022-10-16T13:35:49;75424.81;;;-142.83;44.54
9129;BME280;4599;50.906;6.786;2022-10-16T13:40:02;75431.03;;;-142.83;44.67
9129;BME280;4599;50.906;6.786;2022-10-16T13:44:15;75472.56;;;-142.83;47.92
9129;BME280;4599;50.906;6.786;2022-10-16T13:48:18;75439.34;;;-142.83;45.13
9129;BME280;4599;50.906;6.786;2022-10-16T13:52:21;75435.19;;;-142.83;44.81
9129;BME280;4599;50.906;6.786;2022-10-16T13:56:25;75460.09;;;-142.83;47.65
9129;BME280;4599;50.906;6.786;2022-10-16T14:00:29;75404.06;;;-142.83;44.95
9129;BME280;4599;50.906;6.786;2022-10-16T14:04:32;75470.47;;;-142.83;45.67
9129;BME280;4599;50.906;6.786;2022-10-16T14:08:34;75445.56;;;-142.83;45.91
9129;BME280;4599;50.906;6.786;2022-10-16T14:12:36;75466.34;;;-142.83;46.50
9129;BME280;4599;50.906;6.786;2022-10-16T14:16:41;75501.63;;;-142.83;47.06
9129;BME280;4599;50.906;6.786;2022-10-16T14:20:43;75501.63;;;-142.83;48.30
9129;BME280;4599;50.906;6.786;2022-10-16T14:24:45;75501.63;;;-142.83;47.55
9129;BME280;4599;50.906;6.786;2022-10-16T14:28:48;75524.44;;;-142.83;47.37
9129;BME280;4599;50.906;6.786;2022-10-16T14:32:56;75520.31;;;-142.83;47.53
9129;BME280;4599;50.906;6.786;2022-10-16T14:36:59;75520.31;;;-142.83;46.81
9129;BME280;4599;50.906;6.786;2022-10-16T14:41:03;75559.75;;;-142.83;47.20
9129;BME280;4599;50.906;6.786;2022-10-16T14:45:09;75549.38;;;-142.83;47.41
9129;BME280;4599;50.906;6.786;2022-10-16T14:49:16;75574.28;;;-142.83;50.63
9129;BME280;4599;50.906;6.786;2022-10-16T14:53:19;75626.16;;;-142.83;55.05
9129;BME280;4599;50.906;6.786;2022-10-16T14:57:23;75626.16;;;-142.83;58.23
9129;BME280;4599;50.906;6.786;2022-10-16T15:01:25;75636.56;;;-142.83;57.21
9129;BME280;4599;50.906;6.786;2022-10-16T15:05:28;75657.31;;;-142.83;59.22
9129;BME280;4599;50.906;6.786;2022-10-16T15:09:30;75684.28;;;-142.83;60.41
9129;BME280;4599;50.906;6.786;2022-10-16T15:13:32;75684.28;;;-142.83;58.17
9129;BME280;4599;50.906;6.786;2022-10-16T15:17:33;75702.97;;;-142.83;60.01
9129;BME280;4599;50.906;6.786;2022-10-16T15:21:36;75723.75;;;-142.83;60.97
9129;BME280;4599;50.906;6.786;2022-10-16T15:25:39;75742.41;;;-142.83;64.16
9129;BME280;4599;50.906;6.786;2022-10-16T15:29:42;75756.94;;;-142.83;64.30
9129;BME280;4599;50.906;6.786;2022-10-16T15:33:44;75763.19;;;-142.83;64.54
9129;BME280;4599;50.906;6.786;2022-10-16T15:37:47;75775.63;;;-142.83;66.38
9129;BME280;4599;50.906;6.786;2022-10-16T15:41:49;75779.78;;;-142.83;66.06
9129;BME280;4599;50.906;6.786;2022-10-16T15:45:59;75792.25;;;-142.83;66.59
9129;BME280;4599;50.906;6.786;2022-10-16T15:50:02;75804.69;;;-142.83;67.58
9129;BME280;4599;50.906;6.786;2022-10-16T15:54:05;75806.78;;;-142.83;65.96
9129;BME280;4599;50.906;6.786;2022-10-16T15:58:06;75771.47;;;-142.83;62.49
9129;BME280;4599;50.906;6.786;2022-10-16T16:02:08;75719.59;;;-142.83;58.64
9129;BME280;4599;50.906;6.786;2022-10-16T16:06:12;75788.09;;;-142.83;63.94
9129;BME280;4599;50.906;6.786;2022-10-16T16:10:15;75783.94;;;-142.83;62.53
9129;BME280;4599;50.906;6.786;2022-10-16T16:14:17;75742.41;;;-142.83;59.37
9129;BME280;4599;50.906;6.786;2022-10-16T16:18:18;75705.06;;;-142.83;57.71
9129;BME280;4599;50.906;6.786;2022-10-16T16:22:20;75702.97;;;-142.83;57.52
9129;BME280;4599;50.906;6.786;2022-10-16T16:26:25;75746.56;;;-142.83;58.79
9129;BME280;4599;50.906;6.786;2022-10-16T16:30:27;75719.59;;;-142.83;58.91
9129;BME280;4599;50.906;6.786;2022-10-16T16:34:29;75736.19;;;-142.83;59.05
9129;BME280;4599;50.906;6.786;2022-10-16T16:38:31;75759.03;;;-142.83;59.48
9129;BME280;4599;50.906;6.786;2022-10-16T16:42:34;75771.47;;;-142.83;60.09
9129;BME280;4599;50.906;6.786;2022-10-16T16:46:36;75752.81;;;-142.83;59.31
9129;BME280;4599;50.906;6.786;2022-10-16T16:50:38;75773.56;;;-142.83;59.93
9129;BME280;4599;50.906;6.786;2022-10-16T16:54:42;75773.56;;;-142.83;60.03
9129;BME280;4599;50.906;6.786;2022-10-16T16:58:46;75777.72;;;-142.83;60.31
9129;BME280;4599;50.906;6.786;2022-10-16T17:02:48;75759.03;;;-142.83;59.30
9129;BME280;4599;50.906;6.786;2022-10-16T17:06:50;75790.16;;;-142.83;60.27
9129;BME280;4599;50.906;6.786;2022-10-16T17:10:51;75802.63;;;-142.83;60.41
9129;BME280;4599;50.906;6.786;2022-10-16T17:14:54;75821.31;;;-142.83;61.89
9129;BME280;4599;50.906;6.786;2022-10-16T17:18:59;75810.94;;;-142.83;62.01
9129;BME280;4599;50.906;6.786;2022-10-16T17:23:01;75804.69;;;-142.83;62.16
9129;BME280;4599;50.906;6.786;2022-10-16T17:27:02;75808.84;;;-142.83;61.56
9129;BME280;4599;50.906;6.786;2022-10-16T17:31:08;75815.06;;;-142.83;62.26
9129;BME280;4599;50.906;6.786;2022-10-16T17:35:11;75823.38;;;-142.83;62.08
9129;BME280;4599;50.906;6.786;2022-10-16T17:39:14;75808.84;;;-142.83;61.63
9129;BME280;4599;50.906;6.786;2022-10-16T17:43:16;75833.75;;;-142.83;61.72
9129;BME280;4599;50.906;6.786;2022-10-16T17:47:19;75844.13;;;-142.83;62.12
9129;BME280;4599;50.906;6.786;2022-10-16T17:51:23;75833.75;;;-142.83;61.27
9129;BME280;4599;50.906;6.786;2022-10-16T17:55:25;75858.66;;;-142.83;62.47
9129;BME280;4599;50.906;6.786;2022-10-16T17:59:27;75846.22;;;-142.83;62.29
9129;BME280;4599;50.906;6.786;2022-10-16T18:03:30;75842.06;;;-142.83;62.48
9129;BME280;4599;50.906;6.786;2022-10-16T18:07:32;75848.28;;;-142.83;62.80
9129;BME280;4599;50.906;6.786;2022-10-16T18:11:34;75866.97;;;-142.83;63.44
9129;BME280;4599;50.906;6.786;2022-10-16T18:15:35;75864.91;;;-142.83;63.66
9129;BME280;4599;50.906;6.786;2022-10-16T18:19:38;75854.53;;;-142.83;63.80
9129;BME280;4599;50.906;6.786;2022-10-16T18:23:41;75862.81;;;-142.83;63.93
9129;BME280;4599;50.906;6.786;2022-10-16T18:27:54;75871.13;;;-142.83;64.50
9129;BME280;4599;50.906;6.786;2022-10-16T18:31:56;75875.28;;;-142.83;65.34
9129;BME280;4599;50.906;6.786;2022-10-16T18:36:01;75883.59;;;-142.83;65.93
9129;BME280;4599;50.906;6.786;2022-10-16T18:40:03;75875.28;;;-142.83;66.03
9129;BME280;4599;50.906;6.786;2022-10-16T18:44:05;75860.75;;;-142.83;66.08
9129;BME280;4599;50.906;6.786;2022-10-16T18:48:07;75858.66;;;-142.83;65.70
9129;BME280;4599;50.906;6.786;2022-10-16T18:52:10;75877.34;;;-142.83;66.10
9129;BME280;4599;50.906;6.786;2022-10-16T18:56:12;75869.06;;;-142.83;66.40
9129;BME280;4599;50.906;6.786;2022-10-16T19:00:15;75875.28;;;-142.83;66.65
9129;BME280;4599;50.906;6.786;2022-10-16T19:04:16;75877.34;;;-142.83;66.83
9129;BME280;4599;50.906;6.786;2022-10-16T19:08:19;75896.03;;;-142.83;67.48
9129;BME280;4599;50.906;6.786;2022-10-16T19:12:21;75873.19;;;-142.83;67.32
9129;BME280;4599;50.906;6.786;2022-10-16T19:16:24;75900.19;;;-142.83;68.81
9129;BME280;4599;50.906;6.786;2022-10-16T19:20:26;75893.97;;;-142.83;68.70
9129;BME280;4599;50.906;6.786;2022-10-16T19:24:29;75908.50;;;-142.83;69.41
9129;BME280;4599;50.906;6.786;2022-10-16T19:28:30;75914.72;;;-142.83;69.58
9129;BME280;4599;50.906;6.786;2022-10-16T19:32:32;75916.81;;;-142.83;69.52
9129;BME280;4599;50.906;6.786;2022-10-16T19:36:35;75929.25;;;-142.83;70.00
9129;BME280;4599;50.906;6.786;2022-10-16T19:40:39;75954.16;;;-142.83;70.96
9129;BME280;4599;50.906;6.786;2022-10-16T19:44:40;75937.56;;;-142.83;70.65
9129;BME280;4599;50.906;6.786;2022-10-16T19:48:43;75954.16;;;-142.83;70.83
9129;BME280;4599;50.906;6.786;2022-10-16T19:52:44;75937.56;;;-142.83;70.89
9129;BME280;4599;50.906;6.786;2022-10-16T19:56:47;75954.16;;;-142.83;71.09
9129;BME280;4599;50.906;6.786;2022-10-16T20:00:49;75956.25;;;-142.83;70.99
9129;BME280;4599;50.906;6.786;2022-10-16T20:04:51;75966.63;;;-142.83;71.78
9129;BME280;4599;50.906;6.786;2022-10-16T20:08:53;75977.00;;;-142.83;71.88
9129;BME280;4599;50.906;6.786;2022-10-16T20:12:56;76035.13;;;-142.83;74.57
9129;BME280;4599;50.906;6.786;2022-10-16T20:16:58;76062.13;;;-142.83;75.82
9129;BME280;4599;50.906;6.786;2022-10-16T20:20:59;76070.44;;;-142.83;76.31
9129;BME280;4599;50.906;6.786;2022-10-16T20:25:01;76041.38;;;-142.83;75.47
9129;BME280;4599;50.906;6.786;2022-10-16T20:29:10;76033.06;;;-142.83;74.56
9129;BME280;4599;50.906;6.786;2022-10-16T20:33:12;76001.91;;;-142.83;73.50
9129;BME280;4599;50.906;6.786;2022-10-16T20:37:14;75995.69;;;-142.83;73.82
9129;BME280;4599;50.906;6.786;2022-10-16T20:41:16;76001.91;;;-142.83;73.89
9129;BME280;4599;50.906;6.786;2022-10-16T20:45:19;76030.97;;;-142.83;75.20
9129;BME280;4599;50.906;6.786;2022-10-16T20:49:21;76070.44;;;-142.83;76.95
9129;BME280;4599;50.906;6.786;2022-10-16T20:53:40;76107.78;;;-142.83;77.06
9129;BME280;4599;50.906;6.786;2022-10-16T20:57:42;76130.63;;;-142.83;77.79
9129;BME280;4599;50.906;6.786;2022-10-16T21:01:45;76116.09;;;-142.83;78.48
9129;BME280;4599;50.906;6.786;2022-10-16T21:05:46;76105.72;;;-142.83;77.91
9129;BME280;4599;50.906;6.786;2022-10-16T21:09:48;76099.50;;;-142.83;78.17
9129;BME280;4599;50.906;6.786;2022-10-16T21:13:51;76111.94;;;-142.83;78.19
9129;BME280;4599;50.906;6.786;2022-10-16T21:17:54;76147.25;;;-142.83;79.13
9129;BME280;4599;50.906;6.786;2022-10-16T21:21:55;76157.63;;;-142.83;79.56
9129;BME280;4599;50.906;6.786;2022-10-16T21:25:57;76132.72;;;-142.83;79.27
9129;BME280;4599;50.906;6.786;2022-10-16T21:29:59;76168.00;;;-142.83;80.04
9129;BME280;4599;50.906;6.786;2022-10-16T21:34:02;76170.06;;;-142.83;80.49
9129;BME280;4599;50.906;6.786;2022-10-16T21:38:04;76145.16;;;-142.83;80.74